createdAt,value
2023-03-14T00:01:13.865Z,9.60
2023-03-14T00:03:40.671Z,9.60
2023-03-14T00:06:08.314Z,9.60
2023-03-14T00:08:35.594Z,9.50
2023-03-14T00:11:07.707Z,9.50
2023-03-14T00:13:34.388Z,9.50
2023-03-14T00:16:09.799Z,9.50
2023-03-14T00:18:37.089Z,9.40
2023-03-14T00:21:06.246Z,9.40
2023-03-14T00:23:34.366Z,9.40
2023-03-14T00:26:02.824Z,9.40
2023-03-14T00:28:29.937Z,9.40
2023-03-14T00:30:57.173Z,9.30
2023-03-14T00:33:24.369Z,9.30
2023-03-14T00:35:55.803Z,9.30
2023-03-14T00:38:22.888Z,9.30
2023-03-14T00:40:49.604Z,9.30
2023-03-14T00:43:16.396Z,9.40
2023-03-14T00:45:43.118Z,9.50
2023-03-14T00:48:10.035Z,9.50
2023-03-14T00:50:37.057Z,9.50
2023-03-14T00:53:03.852Z,9.50
2023-03-14T00:55:30.594Z,9.50
2023-03-14T00:57:57.313Z,9.50
2023-03-14T01:00:24.708Z,9.50
2023-03-14T01:02:51.519Z,9.50
2023-03-14T01:05:18.282Z,9.50
2023-03-14T01:07:45.065Z,9.40
2023-03-14T01:10:11.983Z,9.30
2023-03-14T01:12:38.694Z,9.30
2023-03-14T01:15:06.197Z,9.20
2023-03-14T01:17:33.008Z,9.20
2023-03-14T01:20:01.354Z,9.10
2023-03-14T01:22:28.256Z,9.10
2023-03-14T01:24:55.005Z,9.00
2023-03-14T01:27:21.768Z,8.90
2023-03-14T01:29:48.754Z,8.90
2023-03-14T01:32:15.514Z,8.80
2023-03-14T01:34:42.268Z,8.80
2023-03-14T01:37:09.139Z,8.70
2023-03-14T01:39:35.999Z,8.60
2023-03-14T01:42:02.717Z,8.60
2023-03-14T01:44:29.475Z,8.60
2023-03-14T01:46:56.308Z,8.50
2023-03-14T01:49:29.724Z,8.50
2023-03-14T01:52:05.311Z,8.50
2023-03-14T01:54:39.590Z,8.50
2023-03-14T01:57:15.431Z,8.50
2023-03-14T01:59:47.430Z,8.40
2023-03-14T02:02:16.441Z,8.40
2023-03-14T02:04:44.132Z,8.40
2023-03-14T02:07:21.384Z,8.30
2023-03-14T02:09:49.920Z,8.30
2023-03-14T02:12:18.702Z,8.30
2023-03-14T02:14:49.069Z,8.30
2023-03-14T02:17:18.612Z,8.20
2023-03-14T02:19:57.314Z,8.20
2023-03-14T02:22:24.227Z,8.20
2023-03-14T02:25:06.416Z,8.20
2023-03-14T02:27:33.790Z,8.20
2023-03-14T02:30:04.440Z,8.10
2023-03-14T02:32:34.415Z,8.20
2023-03-14T02:35:07.769Z,8.10
2023-03-14T02:37:41.841Z,8.10
2023-03-14T02:40:09.616Z,8.20
2023-03-14T02:42:36.354Z,8.20
2023-03-14T02:45:08.858Z,8.20
2023-03-14T02:47:38.390Z,8.20
2023-03-14T02:50:16.555Z,8.20
2023-03-14T02:52:43.319Z,8.20
2023-03-14T02:55:10.502Z,8.20
2023-03-14T02:57:37.285Z,8.20
2023-03-14T03:00:06.213Z,8.20
2023-03-14T03:02:33.409Z,8.20
2023-03-14T03:05:00.225Z,8.20
2023-03-14T03:07:27.107Z,8.20
2023-03-14T03:09:53.864Z,8.20
2023-03-14T03:12:20.645Z,8.20
2023-03-14T03:14:47.407Z,8.20
2023-03-14T03:17:14.113Z,8.20
2023-03-14T03:19:41.246Z,8.20
2023-03-14T03:22:08.438Z,8.20
2023-03-14T03:24:35.387Z,8.20
2023-03-14T03:27:02.148Z,8.20
2023-03-14T03:29:28.981Z,8.20
2023-03-14T03:31:55.733Z,8.20
2023-03-14T03:34:22.523Z,8.20
2023-03-14T03:36:49.256Z,8.20
2023-03-14T03:39:16.004Z,8.20
2023-03-14T03:41:42.769Z,8.20
2023-03-14T03:44:09.540Z,8.20
2023-03-14T03:46:36.296Z,8.20
2023-03-14T03:49:03.056Z,8.20
2023-03-14T03:51:29.777Z,8.20
2023-03-14T03:53:58.095Z,8.20
2023-03-14T03:56:24.893Z,8.20
2023-03-14T03:58:51.655Z,8.20
2023-03-14T04:01:19.767Z,8.10
2023-03-14T04:03:46.741Z,8.10
2023-03-14T04:06:14.558Z,8.10
2023-03-14T04:08:42.385Z,8.00
2023-03-14T04:11:09.160Z,8.00
2023-03-14T04:13:35.991Z,8.00
2023-03-14T04:16:03.009Z,8.00
2023-03-14T04:18:31.422Z,7.90
2023-03-14T04:20:58.921Z,8.00
2023-03-14T04:23:27.303Z,8.00
2023-03-14T04:25:54.802Z,7.90
2023-03-14T04:28:21.709Z,7.90
2023-03-14T04:30:48.422Z,7.90
2023-03-14T04:33:18.301Z,7.90
2023-03-14T04:35:46.202Z,7.90
2023-03-14T04:38:13.676Z,7.90
2023-03-14T04:40:41.665Z,8.00
2023-03-14T04:43:10.680Z,8.00
2023-03-14T04:45:37.529Z,8.00
2023-03-14T04:48:04.497Z,8.00
2023-03-14T04:50:31.229Z,8.00
2023-03-14T04:52:57.967Z,8.00
2023-03-14T04:55:24.722Z,8.00
2023-03-14T04:57:51.488Z,8.00
2023-03-14T05:00:19.460Z,8.00
2023-03-14T05:05:21.612Z,7.90
2023-03-14T05:07:48.429Z,8.00
2023-03-14T05:10:15.183Z,7.90
2023-03-14T05:12:41.943Z,8.00
2023-03-14T05:15:09.569Z,7.90
2023-03-14T05:17:37.049Z,7.90
2023-03-14T05:20:09.770Z,7.90
2023-03-14T05:22:36.536Z,7.90
2023-03-14T05:25:06.026Z,7.90
2023-03-14T05:27:32.856Z,7.80
2023-03-14T05:29:59.621Z,7.80
2023-03-14T05:32:26.365Z,7.80
2023-03-14T05:34:53.555Z,7.80
2023-03-14T05:37:20.317Z,7.80
2023-03-14T05:39:47.086Z,7.80
2023-03-14T05:42:14.483Z,7.80
2023-03-14T05:44:41.232Z,7.70
2023-03-14T05:47:07.966Z,7.70
2023-03-14T05:49:34.737Z,7.70
2023-03-14T05:52:01.508Z,7.70
2023-03-14T05:54:28.235Z,7.70
2023-03-14T05:56:55.061Z,7.70
2023-03-14T05:59:21.834Z,7.60
2023-03-14T06:01:48.628Z,7.70
2023-03-14T06:04:15.532Z,7.70
2023-03-14T06:06:42.623Z,7.60
2023-03-14T06:09:09.312Z,7.60
2023-03-14T06:11:36.016Z,7.60
2023-03-14T06:14:02.735Z,7.70
2023-03-14T06:16:29.501Z,7.80
2023-03-14T06:18:56.771Z,7.80
2023-03-14T06:21:23.607Z,7.80
2023-03-14T06:23:50.471Z,7.80
2023-03-14T06:26:17.390Z,7.80
2023-03-14T06:28:44.295Z,7.80
2023-03-14T06:31:11.139Z,7.80
2023-03-14T06:33:37.911Z,7.80
2023-03-14T06:36:04.874Z,7.80
2023-03-14T06:38:31.648Z,7.90
2023-03-14T06:41:04.839Z,7.90
2023-03-14T06:43:31.806Z,7.90
2023-03-14T06:45:58.582Z,7.90
2023-03-14T06:48:25.355Z,7.90
2023-03-14T06:50:52.091Z,7.90
2023-03-14T06:53:18.904Z,7.90
2023-03-14T06:55:46.758Z,7.90
2023-03-14T06:58:13.737Z,7.90
2023-03-14T07:00:40.534Z,7.90
2023-03-14T07:03:07.391Z,7.90
2023-03-14T07:05:34.251Z,8.00
2023-03-14T07:08:01.035Z,8.00
2023-03-14T07:10:27.875Z,8.00
2023-03-14T07:12:54.972Z,8.00
2023-03-14T07:15:21.773Z,8.00
2023-03-14T07:17:49.546Z,8.00
2023-03-14T07:20:16.646Z,8.10
2023-03-14T07:22:43.411Z,8.10
2023-03-14T07:25:13.207Z,8.10
2023-03-14T07:27:40.114Z,8.10
2023-03-14T07:30:07.503Z,8.10
2023-03-14T07:32:34.390Z,8.20
2023-03-14T07:35:01.154Z,8.20
2023-03-14T07:37:27.897Z,8.30
2023-03-14T07:39:54.667Z,8.30
2023-03-14T07:42:21.796Z,8.30
2023-03-14T07:44:48.564Z,8.30
2023-03-14T07:47:15.348Z,8.40
2023-03-14T07:49:42.143Z,8.50
2023-03-14T07:52:08.921Z,8.50
2023-03-14T07:54:35.787Z,8.50
2023-03-14T07:57:02.516Z,8.60
2023-03-14T07:59:29.496Z,8.60
2023-03-14T08:01:56.216Z,8.70
2023-03-14T08:04:22.959Z,8.70
2023-03-14T08:06:49.702Z,8.70
2023-03-14T08:09:16.582Z,8.80
2023-03-14T08:11:43.365Z,8.80
2023-03-14T08:14:12.071Z,8.90
2023-03-14T08:16:38.850Z,8.90
2023-03-14T08:19:05.621Z,8.90
2023-03-14T08:21:32.370Z,8.90
2023-03-14T08:23:59.089Z,8.90
2023-03-14T08:26:25.898Z,9.00
2023-03-14T08:28:52.735Z,9.00
2023-03-14T08:31:19.733Z,9.00
2023-03-14T08:33:46.539Z,9.10
2023-03-14T08:36:13.321Z,9.20
2023-03-14T08:38:43.489Z,9.20
2023-03-14T08:41:10.882Z,9.30
2023-03-14T08:43:37.759Z,9.40
2023-03-14T08:46:04.834Z,9.50
2023-03-14T08:48:31.832Z,9.50
2023-03-14T08:51:09.154Z,9.60
2023-03-14T08:53:35.983Z,9.60
2023-03-14T08:56:02.777Z,9.70
2023-03-14T08:58:30.438Z,9.80
2023-03-14T09:00:57.733Z,10.00
2023-03-14T09:03:25.530Z,10.10
2023-03-14T09:05:53.229Z,10.10
2023-03-14T09:08:19.939Z,10.20
2023-03-14T09:10:46.791Z,10.30
2023-03-14T09:13:13.593Z,10.30
2023-03-14T09:15:40.867Z,10.40
2023-03-14T09:18:07.617Z,10.50
2023-03-14T09:20:34.367Z,10.60
2023-03-14T09:23:01.194Z,10.70
2023-03-14T09:25:28.083Z,10.70
2023-03-14T09:27:54.845Z,10.80
2023-03-14T09:30:21.767Z,10.80
2023-03-14T09:32:48.580Z,10.80
2023-03-14T09:35:15.437Z,10.90
2023-03-14T09:37:42.155Z,11.00
2023-03-14T09:40:16.818Z,11.20
2023-03-14T09:42:43.797Z,11.30
2023-03-14T09:45:20.854Z,11.40
2023-03-14T09:47:58.643Z,11.40
2023-03-14T09:50:30.939Z,11.40
2023-03-14T09:53:03.963Z,11.50
2023-03-14T09:55:30.767Z,11.50
2023-03-14T09:58:04.351Z,11.70
2023-03-14T10:00:32.820Z,11.80
2023-03-14T10:03:20.868Z,11.90
2023-03-14T10:05:47.642Z,11.90
2023-03-14T10:08:14.975Z,11.90
2023-03-14T10:10:42.367Z,11.90
2023-03-14T10:13:17.456Z,11.80
2023-03-14T10:15:54.234Z,11.80
2023-03-14T10:18:21.181Z,11.80
2023-03-14T10:20:50.146Z,11.80
2023-03-14T10:23:16.928Z,12.00
2023-03-14T10:26:01.522Z,12.10
2023-03-14T10:28:30.100Z,12.20
2023-03-14T10:30:58.506Z,12.30
2023-03-14T10:33:32.823Z,12.30
2023-03-14T10:36:02.661Z,12.30
2023-03-14T10:38:35.066Z,12.50
2023-03-14T10:41:02.969Z,12.40
2023-03-14T10:43:34.602Z,12.50
2023-03-14T10:46:12.693Z,12.60
2023-03-14T10:48:43.061Z,12.60
2023-03-14T10:51:19.024Z,12.40
2023-03-14T10:53:48.953Z,12.50
2023-03-14T10:56:18.580Z,12.60
2023-03-14T10:58:48.251Z,12.60
2023-03-14T11:04:00.395Z,12.60
2023-03-14T11:06:33.311Z,12.60
2023-03-14T11:09:07.055Z,12.40
2023-03-14T11:11:34.020Z,12.30
2023-03-14T11:14:26.534Z,12.30
2023-03-14T11:17:10.986Z,12.20
2023-03-14T11:20:05.550Z,12.20
2023-03-14T11:22:51.203Z,12.10
2023-03-14T11:25:28.340Z,12.10
2023-03-14T11:28:06.932Z,12.20
2023-03-14T11:30:51.143Z,12.30
2023-03-14T11:33:34.479Z,12.30
2023-03-14T11:36:22.897Z,12.30
2023-03-14T11:39:00.126Z,12.30
2023-03-14T11:41:34.961Z,12.40
2023-03-14T11:44:11.288Z,12.30
2023-03-14T11:46:44.621Z,12.30
2023-03-14T11:49:29.686Z,12.30
2023-03-14T11:52:29.220Z,12.20
2023-03-14T11:55:27.126Z,12.10
2023-03-14T11:58:01.115Z,12.10
2023-03-14T12:00:28.677Z,12.00
2023-03-14T12:03:36.122Z,12.20
2023-03-14T12:06:31.652Z,12.50
2023-03-14T12:09:04.473Z,12.50
2023-03-14T12:11:38.096Z,12.30
2023-03-14T12:14:23.204Z,12.20
2023-03-14T12:16:57.813Z,12.10
2023-03-14T12:19:24.511Z,12.00
2023-03-14T12:22:02.295Z,11.90
2023-03-14T12:24:36.906Z,11.80
2023-03-14T12:27:06.258Z,11.90
2023-03-14T12:29:33.021Z,12.00
2023-03-14T12:32:02.573Z,12.00
2023-03-14T12:34:33.963Z,12.00
2023-03-14T12:37:11.861Z,11.90
2023-03-14T12:40:10.538Z,12.00
2023-03-14T12:42:45.292Z,11.90
2023-03-14T12:45:31.457Z,11.60
2023-03-14T12:48:09.287Z,11.60
2023-03-14T12:50:46.135Z,11.40
2023-03-14T12:53:34.767Z,11.20
2023-03-14T12:56:20.299Z,11.10
2023-03-14T12:59:05.479Z,11.10
2023-03-14T13:01:34.604Z,11.00
2023-03-14T13:04:10.972Z,11.00
2023-03-14T13:06:58.144Z,10.70
2023-03-14T13:09:32.609Z,10.50
2023-03-14T13:12:12.866Z,10.50
2023-03-14T13:14:46.158Z,10.80
2023-03-14T13:17:34.045Z,10.80
2023-03-14T13:20:13.584Z,10.60
2023-03-14T13:22:46.449Z,10.50
2023-03-14T13:25:13.262Z,10.30
2023-03-14T13:27:41.523Z,10.20
2023-03-14T13:30:17.691Z,10.20
2023-03-14T13:32:46.122Z,10.10
2023-03-14T13:35:24.558Z,10.00
2023-03-14T13:38:16.071Z,9.80
2023-03-14T13:40:45.995Z,9.60
2023-03-14T13:43:13.553Z,9.50
2023-03-14T13:46:23.158Z,9.50
2023-03-14T13:48:55.633Z,9.40
2023-03-14T13:51:23.110Z,9.20
2023-03-14T13:53:52.629Z,9.10
2023-03-14T13:56:21.359Z,8.90
2023-03-14T13:58:48.100Z,8.80
2023-03-14T14:01:39.740Z,8.60
2023-03-14T14:04:15.877Z,8.40
2023-03-14T14:07:17.199Z,8.30
2023-03-14T14:09:49.801Z,8.30
2023-03-14T14:12:22.612Z,8.40
2023-03-14T14:15:14.534Z,8.40
2023-03-14T14:17:46.614Z,8.30
2023-03-14T14:20:38.710Z,8.20
2023-03-14T14:23:20.994Z,8.10
2023-03-14T14:25:50.208Z,8.10
2023-03-14T14:28:27.933Z,8.00
2023-03-14T14:31:02.853Z,8.10
2023-03-14T14:33:29.661Z,8.10
2023-03-14T14:36:01.796Z,8.20
2023-03-14T14:38:29.539Z,8.10
2023-03-14T14:41:01.684Z,8.10
2023-03-14T14:43:29.209Z,8.10
2023-03-14T14:45:58.502Z,8.10
2023-03-14T14:48:28.549Z,7.90
2023-03-14T14:51:04.956Z,7.60
2023-03-14T14:53:39.246Z,7.50
2023-03-14T14:56:28.494Z,7.30
2023-03-14T14:59:06.117Z,7.20
2023-03-14T15:01:35.794Z,7.20
2023-03-14T15:04:03.096Z,7.20
2023-03-14T15:06:32.340Z,7.30
2023-03-14T15:08:59.634Z,7.30
2023-03-14T15:11:27.403Z,7.50
2023-03-14T15:13:54.789Z,7.70
2023-03-14T15:16:29.955Z,7.90
2023-03-14T15:18:59.651Z,8.00
2023-03-14T15:21:28.293Z,8.10
2023-03-14T15:23:55.669Z,8.10
2023-03-14T15:26:27.820Z,8.10
2023-03-14T15:28:54.807Z,8.10
2023-03-14T15:31:25.102Z,8.10
2023-03-14T15:33:51.894Z,8.20
2023-03-14T15:36:31.645Z,8.40
2023-03-14T15:38:59.900Z,8.40
2023-03-14T15:41:28.024Z,8.40
2023-03-14T15:43:55.799Z,8.40
2023-03-14T15:46:23.598Z,8.30
2023-03-14T15:48:51.887Z,8.10
2023-03-14T15:51:18.869Z,8.00
2023-03-14T15:53:45.672Z,7.80
2023-03-14T15:56:15.176Z,7.80
2023-03-14T15:58:42.326Z,7.80
2023-03-14T16:01:10.435Z,7.80
2023-03-14T16:03:37.178Z,7.80
2023-03-14T16:06:04.694Z,7.70
2023-03-14T16:08:31.410Z,7.70
2023-03-14T16:10:59.519Z,7.60
2023-03-14T16:13:26.819Z,7.60
2023-03-14T16:15:58.488Z,7.60
2023-03-14T16:18:27.873Z,7.60
2023-03-14T16:20:59.537Z,7.60
2023-03-14T16:23:27.909Z,7.60
2023-03-14T16:25:57.165Z,7.60
2023-03-14T16:28:24.533Z,7.60
2023-03-14T16:30:51.445Z,7.50
2023-03-14T16:33:18.561Z,7.50
2023-03-14T16:36:01.594Z,7.50
2023-03-14T16:41:17.409Z,7.40
2023-03-14T16:43:44.795Z,7.40
2023-03-14T16:46:17.332Z,7.30
2023-03-14T16:48:45.116Z,7.30
2023-03-14T16:51:12.604Z,7.30
2023-03-14T16:53:39.290Z,7.30
2023-03-14T16:56:06.598Z,7.20
2023-03-14T16:58:33.428Z,7.10
2023-03-14T17:01:09.820Z,7.10
2023-03-14T17:06:04.733Z,7.00
2023-03-14T17:08:31.862Z,6.90
2023-03-14T17:10:59.023Z,6.80
2023-03-14T17:13:25.930Z,6.70
2023-03-14T17:15:54.954Z,6.70
2023-03-14T17:18:23.091Z,6.60
2023-03-14T17:20:51.664Z,6.60
2023-03-14T17:23:19.107Z,6.50
2023-03-14T17:25:50.556Z,6.50
2023-03-14T17:28:24.458Z,6.40
2023-03-14T17:30:51.747Z,6.30
2023-03-14T17:33:20.581Z,6.30
2023-03-14T17:35:47.396Z,6.20
2023-03-14T17:38:14.186Z,6.10
2023-03-14T17:40:41.028Z,6.10
2023-03-14T17:43:07.742Z,6.10
2023-03-14T17:45:34.740Z,6.00
2023-03-14T17:48:03.920Z,6.00
2023-03-14T17:50:30.688Z,6.00
2023-03-14T17:52:57.403Z,6.00
2023-03-14T17:55:24.533Z,6.00
2023-03-14T17:57:51.315Z,6.00
2023-03-14T18:00:19.794Z,6.00
2023-03-14T18:02:47.020Z,6.00
2023-03-14T18:05:13.946Z,6.00
2023-03-14T18:07:42.060Z,6.00
2023-03-14T18:10:10.546Z,5.90
2023-03-14T18:12:37.461Z,5.90
2023-03-14T18:15:05.232Z,5.90
2023-03-14T18:17:32.008Z,5.80
2023-03-14T18:19:58.734Z,5.90
2023-03-14T18:22:25.818Z,5.80
2023-03-14T18:24:53.285Z,5.80
2023-03-14T18:27:20.033Z,5.90
2023-03-14T18:29:46.775Z,5.90
2023-03-14T18:32:13.522Z,5.90
2023-03-14T18:34:40.273Z,5.80
2023-03-14T18:37:07.330Z,5.80
2023-03-14T18:39:34.649Z,5.80
2023-03-14T18:42:01.392Z,5.80
2023-03-14T18:44:28.119Z,5.80
2023-03-14T18:46:55.072Z,5.80
2023-03-14T18:49:21.916Z,5.90
2023-03-14T18:51:48.682Z,5.80
2023-03-14T18:54:15.421Z,5.80
2023-03-14T18:56:42.687Z,5.80
2023-03-14T18:59:10.424Z,5.80
2023-03-14T19:01:38.039Z,5.90
2023-03-14T19:04:05.512Z,5.80
2023-03-14T19:06:32.985Z,5.80
2023-03-14T19:09:01.323Z,5.90
2023-03-14T19:11:28.183Z,5.90
2023-03-14T19:13:55.093Z,5.90
2023-03-14T19:16:25.230Z,5.90
2023-03-14T19:18:52.420Z,5.90
2023-03-14T19:21:33.453Z,5.90
2023-03-14T19:24:01.211Z,5.90
2023-03-14T19:26:32.529Z,5.90
2023-03-14T19:28:59.751Z,5.90
2023-03-14T19:31:27.423Z,5.80
2023-03-14T19:33:54.709Z,5.80
2023-03-14T19:36:27.119Z,5.80
2023-03-14T19:38:54.608Z,5.80
2023-03-14T19:41:24.136Z,5.80
2023-03-14T19:43:52.013Z,5.80
2023-03-14T19:46:18.852Z,5.80
2023-03-14T19:48:45.927Z,5.80
2023-03-14T19:51:16.596Z,5.70
2023-03-14T19:53:44.224Z,5.70
2023-03-14T19:56:11.781Z,5.80
2023-03-14T19:58:40.134Z,5.80
2023-03-14T20:01:08.115Z,5.80
2023-03-14T20:03:38.267Z,5.80
2023-03-14T20:06:11.753Z,5.60
2023-03-14T20:08:39.427Z,5.50
2023-03-14T20:11:08.717Z,5.30
2023-03-14T20:13:35.733Z,5.20
2023-03-14T20:16:07.694Z,5.10
2023-03-14T20:18:34.456Z,4.90
2023-03-14T20:21:05.168Z,4.80
2023-03-14T20:23:32.191Z,4.80
2023-03-14T20:25:59.967Z,4.80
2023-03-14T20:28:26.766Z,4.80
2023-03-14T20:30:53.644Z,4.70
2023-03-14T20:33:20.884Z,4.70
2023-03-14T20:35:56.401Z,4.70
2023-03-14T20:38:24.283Z,4.70
2023-03-14T20:40:51.130Z,4.60
2023-03-14T20:43:18.034Z,4.60
2023-03-14T20:45:44.842Z,4.60
2023-03-14T20:48:11.537Z,4.60
2023-03-14T20:50:38.272Z,4.60
2023-03-14T20:53:05.134Z,4.60
2023-03-14T20:55:31.958Z,4.60
2023-03-14T20:57:59.270Z,4.50
2023-03-14T21:00:26.028Z,4.50
2023-03-14T21:02:54.467Z,4.40
2023-03-14T21:05:22.006Z,4.40
2023-03-14T21:07:48.773Z,4.30
2023-03-14T21:10:16.114Z,4.20
2023-03-14T21:12:42.905Z,4.10
2023-03-14T21:15:10.455Z,4.10
2023-03-14T21:17:39.036Z,4.10
2023-03-14T21:20:09.052Z,4.00
2023-03-14T21:22:35.769Z,3.90
2023-03-14T21:25:02.653Z,3.90
2023-03-14T21:27:29.382Z,3.90
2023-03-14T21:29:57.370Z,3.90
2023-03-14T21:32:24.337Z,3.80
2023-03-14T21:34:52.662Z,3.70
2023-03-14T21:37:19.545Z,3.70
2023-03-14T21:39:46.306Z,3.60
2023-03-14T21:42:13.426Z,3.70
2023-03-14T21:44:41.430Z,3.60
2023-03-14T21:47:10.017Z,3.60
2023-03-14T21:49:39.675Z,3.60
2023-03-14T21:52:12.638Z,3.50
2023-03-14T21:54:39.754Z,3.60
2023-03-14T21:57:07.454Z,3.60
2023-03-14T21:59:35.503Z,3.50
2023-03-14T22:02:06.566Z,3.60
2023-03-14T22:04:34.978Z,3.50
2023-03-14T22:07:03.428Z,3.60
2023-03-14T22:09:30.542Z,3.60
2023-03-14T22:11:57.290Z,3.60
2023-03-14T22:14:27.375Z,3.60
2023-03-14T22:16:54.668Z,3.60
2023-03-14T22:19:22.143Z,3.60
2023-03-14T22:21:48.934Z,3.50
2023-03-14T22:24:16.124Z,3.60
2023-03-14T22:26:43.185Z,3.60
2023-03-14T22:29:10.570Z,3.50
2023-03-14T22:31:37.579Z,3.50
2023-03-14T22:34:04.385Z,3.50
2023-03-14T22:36:31.153Z,3.40
2023-03-14T22:38:58.452Z,3.40
2023-03-14T22:41:25.338Z,3.40
2023-03-14T22:43:52.399Z,3.30
2023-03-14T22:46:19.367Z,3.30
2023-03-14T22:48:46.198Z,3.20
2023-03-14T22:51:15.002Z,3.20
2023-03-14T22:53:41.807Z,3.20
2023-03-14T22:56:09.253Z,3.10
2023-03-14T22:58:36.258Z,3.10
2023-03-14T23:01:03.140Z,3.00
2023-03-14T23:03:29.939Z,3.00
2023-03-14T23:05:56.790Z,3.00
2023-03-14T23:08:23.669Z,3.00
2023-03-14T23:10:53.384Z,3.10
2023-03-14T23:13:20.160Z,3.10
2023-03-14T23:15:46.949Z,3.20
2023-03-14T23:18:13.949Z,3.20
2023-03-14T23:20:43.185Z,3.30
2023-03-14T23:23:13.657Z,3.30
2023-03-14T23:25:52.960Z,3.40
2023-03-14T23:28:23.203Z,3.40
2023-03-14T23:30:57.068Z,3.40
2023-03-14T23:33:25.529Z,3.40
2023-03-14T23:35:54.521Z,3.40
2023-03-14T23:38:24.468Z,3.40
2023-03-14T23:40:51.645Z,3.40
2023-03-14T23:43:19.204Z,3.40
2023-03-14T23:45:53.916Z,3.40
2023-03-14T23:48:25.803Z,3.40
2023-03-14T23:51:00.806Z,3.30
2023-03-14T23:53:29.313Z,3.10
2023-03-14T23:55:56.768Z,2.90
2023-03-14T23:58:24.183Z,2.80
